sensor_id;sensor_type;location;lat;lon;timestamp;P1;durP1;ratioP1;P2;durP2;ratioP2
20283;SDS011;10301;50.832;4.080;2023-03-15T00:01:55;11.40;;;3.13;;
20283;SDS011;10301;50.832;4.080;2023-03-15T00:04:21;8.07;;;2.60;;
20283;SDS011;10301;50.832;4.080;2023-03-15T00:06:49;14.47;;;3.80;;
20283;SDS011;10301;50.832;4.080;2023-03-15T00:09:14;18.70;;;3.03;;
20283;SDS011;10301;50.832;4.080;2023-03-15T00:11:40;14.67;;;2.97;;
20283;SDS011;10301;50.832;4.080;2023-03-15T00:14:06;16.37;;;3.20;;
20283;SDS011;10301;50.832;4.080;2023-03-15T00:16:32;10.23;;;2.83;;
20283;SDS011;10301;50.832;4.080;2023-03-15T00:18:57;14.77;;;3.60;;
20283;SDS011;10301;50.832;4.080;2023-03-15T00:21:23;11.23;;;3.27;;
20283;SDS011;10301;50.832;4.080;2023-03-15T00:23:49;17.33;;;3.73;;
20283;SDS011;10301;50.832;4.080;2023-03-15T00:26:15;9.67;;;2.87;;
20283;SDS011;10301;50.832;4.080;2023-03-15T00:28:41;7.33;;;2.73;;
20283;SDS011;10301;50.832;4.080;2023-03-15T00:31:11;7.70;;;2.27;;
20283;SDS011;10301;50.832;4.080;2023-03-15T00:33:42;9.20;;;2.00;;
20283;SDS011;10301;50.832;4.080;2023-03-15T00:36:09;4.53;;;1.37;;
20283;SDS011;10301;50.832;4.080;2023-03-15T00:38:36;4.70;;;1.17;;
20283;SDS011;10301;50.832;4.080;2023-03-15T00:41:04;5.13;;;1.10;;
20283;SDS011;10301;50.832;4.080;2023-03-15T00:43:31;2.60;;;0.80;;
20283;SDS011;10301;50.832;4.080;2023-03-15T00:45:57;2.57;;;0.87;;
20283;SDS011;10301;50.832;4.080;2023-03-15T00:48:23;4.77;;;0.90;;
20283;SDS011;10301;50.832;4.080;2023-03-15T00:50:49;2.00;;;0.90;;
20283;SDS011;10301;50.832;4.080;2023-03-15T00:53:14;3.10;;;0.77;;
20283;SDS011;10301;50.832;4.080;2023-03-15T00:55:40;3.47;;;0.90;;
20283;SDS011;10301;50.832;4.080;2023-03-15T00:58:06;3.77;;;0.80;;
20283;SDS011;10301;50.832;4.080;2023-03-15T01:00:32;2.17;;;0.90;;
20283;SDS011;10301;50.832;4.080;2023-03-15T01:02:58;5.83;;;1.30;;
20283;SDS011;10301;50.832;4.080;2023-03-15T01:05:24;3.83;;;1.33;;
20283;SDS011;10301;50.832;4.080;2023-03-15T01:07:50;5.40;;;1.80;;
20283;SDS011;10301;50.832;4.080;2023-03-15T01:10:17;5.50;;;2.27;;
20283;SDS011;10301;50.832;4.080;2023-03-15T01:12:43;6.97;;;2.10;;
20283;SDS011;10301;50.832;4.080;2023-03-15T01:15:11;5.43;;;1.90;;
20283;SDS011;10301;50.832;4.080;2023-03-15T01:17:38;5.03;;;1.57;;
20283;SDS011;10301;50.832;4.080;2023-03-15T01:20:04;4.23;;;1.83;;
20283;SDS011;10301;50.832;4.080;2023-03-15T01:22:30;5.70;;;2.07;;
20283;SDS011;10301;50.832;4.080;2023-03-15T01:24:56;4.83;;;2.10;;
20283;SDS011;10301;50.832;4.080;2023-03-15T01:27:22;6.07;;;2.10;;
20283;SDS011;10301;50.832;4.080;2023-03-15T01:29:48;5.63;;;2.00;;
20283;SDS011;10301;50.832;4.080;2023-03-15T01:32:13;6.80;;;2.07;;
20283;SDS011;10301;50.832;4.080;2023-03-15T01:34:39;8.60;;;2.43;;
20283;SDS011;10301;50.832;4.080;2023-03-15T01:37:05;8.57;;;2.80;;
20283;SDS011;10301;50.832;4.080;2023-03-15T01:39:30;7.67;;;2.50;;
20283;SDS011;10301;50.832;4.080;2023-03-15T01:41:56;9.47;;;2.97;;
20283;SDS011;10301;50.832;4.080;2023-03-15T01:44:22;8.00;;;2.53;;
20283;SDS011;10301;50.832;4.080;2023-03-15T01:46:48;8.07;;;2.70;;
20283;SDS011;10301;50.832;4.080;2023-03-15T01:49:28;7.00;;;2.83;;
20283;SDS011;10301;50.832;4.080;2023-03-15T01:52:00;7.83;;;3.00;;
20283;SDS011;10301;50.832;4.080;2023-03-15T01:59:37;6.27;;;3.00;;
20283;SDS011;10301;50.832;4.080;2023-03-15T02:02:08;9.27;;;3.50;;
20283;SDS011;10301;50.832;4.080;2023-03-15T02:04:52;9.63;;;3.30;;
20283;SDS011;10301;50.832;4.080;2023-03-15T02:07:28;6.53;;;3.43;;
20283;SDS011;10301;50.832;4.080;2023-03-15T02:12:32;8.27;;;3.23;;
20283;SDS011;10301;50.832;4.080;2023-03-15T02:15:03;12.07;;;4.43;;
20283;SDS011;10301;50.832;4.080;2023-03-15T02:17:37;7.57;;;4.00;;
20283;SDS011;10301;50.832;4.080;2023-03-15T02:22:48;7.03;;;4.03;;
20283;SDS011;10301;50.832;4.080;2023-03-15T02:25:20;8.47;;;4.20;;
20283;SDS011;10301;50.832;4.080;2023-03-15T02:27:53;10.53;;;3.90;;
20283;SDS011;10301;50.832;4.080;2023-03-15T02:30:20;8.23;;;3.83;;
20283;SDS011;10301;50.832;4.080;2023-03-15T02:32:46;7.33;;;4.40;;
20283;SDS011;10301;50.832;4.080;2023-03-15T02:35:21;11.63;;;4.47;;
20283;SDS011;10301;50.832;4.080;2023-03-15T02:37:48;7.77;;;4.17;;
20283;SDS011;10301;50.832;4.080;2023-03-15T02:40:21;10.00;;;4.43;;
20283;SDS011;10301;50.832;4.080;2023-03-15T02:42:53;13.87;;;4.90;;
20283;SDS011;10301;50.832;4.080;2023-03-15T02:45:25;9.37;;;4.70;;
20283;SDS011;10301;50.832;4.080;2023-03-15T02:47:55;10.17;;;4.17;;
20283;SDS011;10301;50.832;4.080;2023-03-15T02:50:22;9.20;;;4.70;;
20283;SDS011;10301;50.832;4.080;2023-03-15T02:52:47;9.00;;;4.70;;
20283;SDS011;10301;50.832;4.080;2023-03-15T02:55:13;9.73;;;4.63;;
20283;SDS011;10301;50.832;4.080;2023-03-15T02:57:39;12.50;;;5.30;;
20283;SDS011;10301;50.832;4.080;2023-03-15T03:00:05;8.70;;;4.50;;
20283;SDS011;10301;50.832;4.080;2023-03-15T03:02:38;9.37;;;4.57;;
20283;SDS011;10301;50.832;4.080;2023-03-15T03:05:05;12.27;;;5.13;;
20283;SDS011;10301;50.832;4.080;2023-03-15T03:07:31;10.97;;;5.00;;
20283;SDS011;10301;50.832;4.080;2023-03-15T03:09:57;9.37;;;4.77;;
20283;SDS011;10301;50.832;4.080;2023-03-15T03:12:23;8.97;;;4.50;;
20283;SDS011;10301;50.832;4.080;2023-03-15T03:14:48;12.60;;;5.33;;
20283;SDS011;10301;50.832;4.080;2023-03-15T03:17:14;10.53;;;4.67;;
20283;SDS011;10301;50.832;4.080;2023-03-15T03:19:40;11.77;;;5.57;;
20283;SDS011;10301;50.832;4.080;2023-03-15T03:22:05;11.90;;;5.27;;
20283;SDS011;10301;50.832;4.080;2023-03-15T03:24:31;11.13;;;4.50;;
20283;SDS011;10301;50.832;4.080;2023-03-15T03:26:57;10.03;;;5.10;;
20283;SDS011;10301;50.832;4.080;2023-03-15T03:29:24;9.83;;;5.90;;
20283;SDS011;10301;50.832;4.080;2023-03-15T03:31:50;10.90;;;5.40;;
20283;SDS011;10301;50.832;4.080;2023-03-15T03:34:16;10.70;;;6.30;;
20283;SDS011;10301;50.832;4.080;2023-03-15T03:36:42;12.43;;;6.40;;
20283;SDS011;10301;50.832;4.080;2023-03-15T03:39:08;11.87;;;6.03;;
20283;SDS011;10301;50.832;4.080;2023-03-15T03:41:34;19.53;;;10.40;;
20283;SDS011;10301;50.832;4.080;2023-03-15T03:44:00;16.83;;;10.20;;
20283;SDS011;10301;50.832;4.080;2023-03-15T03:46:26;14.93;;;7.70;;
20283;SDS011;10301;50.832;4.080;2023-03-15T03:48:52;15.77;;;7.27;;
20283;SDS011;10301;50.832;4.080;2023-03-15T03:51:19;21.90;;;11.83;;
20283;SDS011;10301;50.832;4.080;2023-03-15T03:53:45;24.57;;;13.50;;
20283;SDS011;10301;50.832;4.080;2023-03-15T03:56:10;15.63;;;7.40;;
20283;SDS011;10301;50.832;4.080;2023-03-15T03:58:36;12.70;;;6.87;;
20283;SDS011;10301;50.832;4.080;2023-03-15T04:01:02;13.03;;;7.17;;
20283;SDS011;10301;50.832;4.080;2023-03-15T04:03:29;15.67;;;7.10;;
20283;SDS011;10301;50.832;4.080;2023-03-15T04:05:55;14.23;;;6.97;;
20283;SDS011;10301;50.832;4.080;2023-03-15T04:08:22;11.33;;;6.60;;
20283;SDS011;10301;50.832;4.080;2023-03-15T04:10:50;12.27;;;6.50;;
20283;SDS011;10301;50.832;4.080;2023-03-15T04:13:17;13.83;;;7.47;;
20283;SDS011;10301;50.832;4.080;2023-03-15T04:15:43;11.80;;;7.43;;
20283;SDS011;10301;50.832;4.080;2023-03-15T04:18:09;15.13;;;8.17;;
20283;SDS011;10301;50.832;4.080;2023-03-15T04:20:35;15.43;;;9.97;;
20283;SDS011;10301;50.832;4.080;2023-03-15T04:23:00;16.03;;;9.70;;
20283;SDS011;10301;50.832;4.080;2023-03-15T04:25:26;29.97;;;20.50;;
20283;SDS011;10301;50.832;4.080;2023-03-15T04:27:52;36.20;;;25.10;;
20283;SDS011;10301;50.832;4.080;2023-03-15T04:30:27;26.90;;;19.13;;
20283;SDS011;10301;50.832;4.080;2023-03-15T04:32:56;23.77;;;14.00;;
20283;SDS011;10301;50.832;4.080;2023-03-15T04:35:28;22.03;;;11.27;;
20283;SDS011;10301;50.832;4.080;2023-03-15T04:37:55;13.73;;;8.63;;
20283;SDS011;10301;50.832;4.080;2023-03-15T04:40:21;16.83;;;10.03;;
20283;SDS011;10301;50.832;4.080;2023-03-15T04:42:53;18.13;;;9.40;;
20283;SDS011;10301;50.832;4.080;2023-03-15T04:45:23;15.73;;;9.50;;
20283;SDS011;10301;50.832;4.080;2023-03-15T04:47:51;18.43;;;9.60;;
20283;SDS011;10301;50.832;4.080;2023-03-15T04:50:17;17.73;;;9.80;;
20283;SDS011;10301;50.832;4.080;2023-03-15T04:52:44;20.90;;;11.57;;
20283;SDS011;10301;50.832;4.080;2023-03-15T04:55:10;19.87;;;12.77;;
20283;SDS011;10301;50.832;4.080;2023-03-15T04:57:35;18.47;;;12.33;;
20283;SDS011;10301;50.832;4.080;2023-03-15T05:00:02;20.33;;;13.07;;
20283;SDS011;10301;50.832;4.080;2023-03-15T05:02:31;19.20;;;10.87;;
20283;SDS011;10301;50.832;4.080;2023-03-15T05:04:57;18.37;;;10.40;;
20283;SDS011;10301;50.832;4.080;2023-03-15T05:07:23;22.23;;;10.87;;
20283;SDS011;10301;50.832;4.080;2023-03-15T05:09:49;21.90;;;11.90;;
20283;SDS011;10301;50.832;4.080;2023-03-15T05:12:15;14.93;;;9.13;;
20283;SDS011;10301;50.832;4.080;2023-03-15T05:14:40;19.73;;;9.97;;
20283;SDS011;10301;50.832;4.080;2023-03-15T05:17:06;16.33;;;9.87;;
20283;SDS011;10301;50.832;4.080;2023-03-15T05:19:32;20.80;;;8.43;;
20283;SDS011;10301;50.832;4.080;2023-03-15T05:21:58;15.43;;;8.70;;
20283;SDS011;10301;50.832;4.080;2023-03-15T05:24:28;20.40;;;8.40;;
20283;SDS011;10301;50.832;4.080;2023-03-15T05:26:54;17.87;;;10.13;;
20283;SDS011;10301;50.832;4.080;2023-03-15T05:29:20;21.33;;;9.80;;
20283;SDS011;10301;50.832;4.080;2023-03-15T05:31:47;20.90;;;10.27;;
20283;SDS011;10301;50.832;4.080;2023-03-15T05:34:13;22.43;;;11.63;;
20283;SDS011;10301;50.832;4.080;2023-03-15T05:36:39;21.23;;;10.90;;
20283;SDS011;10301;50.832;4.080;2023-03-15T05:39:05;21.33;;;11.47;;
20283;SDS011;10301;50.832;4.080;2023-03-15T05:41:31;22.10;;;10.63;;
20283;SDS011;10301;50.832;4.080;2023-03-15T05:43:57;20.50;;;10.43;;
20283;SDS011;10301;50.832;4.080;2023-03-15T05:46:23;20.70;;;10.33;;
20283;SDS011;10301;50.832;4.080;2023-03-15T05:48:49;22.63;;;10.63;;
20283;SDS011;10301;50.832;4.080;2023-03-15T05:51:15;17.93;;;9.03;;
20283;SDS011;10301;50.832;4.080;2023-03-15T05:53:41;22.70;;;10.40;;
20283;SDS011;10301;50.832;4.080;2023-03-15T05:56:07;19.70;;;11.80;;
20283;SDS011;10301;50.832;4.080;2023-03-15T05:58:33;24.83;;;11.67;;
20283;SDS011;10301;50.832;4.080;2023-03-15T06:00:59;23.43;;;11.27;;
20283;SDS011;10301;50.832;4.080;2023-03-15T06:03:26;22.60;;;11.60;;
20283;SDS011;10301;50.832;4.080;2023-03-15T06:05:52;23.70;;;12.00;;
20283;SDS011;10301;50.832;4.080;2023-03-15T06:08:18;22.07;;;10.47;;
20283;SDS011;10301;50.832;4.080;2023-03-15T06:10:43;24.80;;;12.07;;
20283;SDS011;10301;50.832;4.080;2023-03-15T06:13:09;28.90;;;12.17;;
20283;SDS011;10301;50.832;4.080;2023-03-15T06:15:35;22.20;;;12.47;;
20283;SDS011;10301;50.832;4.080;2023-03-15T06:18:00;22.93;;;12.07;;
20283;SDS011;10301;50.832;4.080;2023-03-15T06:20:26;26.77;;;12.40;;
20283;SDS011;10301;50.832;4.080;2023-03-15T06:22:52;19.10;;;11.33;;
20283;SDS011;10301;50.832;4.080;2023-03-15T06:25:18;17.43;;;9.20;;
20283;SDS011;10301;50.832;4.080;2023-03-15T06:27:44;18.93;;;10.87;;
20283;SDS011;10301;50.832;4.080;2023-03-15T06:30:09;17.53;;;9.60;;
20283;SDS011;10301;50.832;4.080;2023-03-15T06:32:35;22.43;;;11.10;;
20283;SDS011;10301;50.832;4.080;2023-03-15T06:35:01;21.73;;;10.27;;
20283;SDS011;10301;50.832;4.080;2023-03-15T06:37:28;20.97;;;10.50;;
20283;SDS011;10301;50.832;4.080;2023-03-15T06:39:54;20.60;;;9.87;;
20283;SDS011;10301;50.832;4.080;2023-03-15T06:42:20;21.80;;;9.40;;
20283;SDS011;10301;50.832;4.080;2023-03-15T06:44:46;17.83;;;9.17;;
20283;SDS011;10301;50.832;4.080;2023-03-15T06:47:12;17.17;;;9.33;;
20283;SDS011;10301;50.832;4.080;2023-03-15T06:49:38;19.23;;;8.37;;
20283;SDS011;10301;50.832;4.080;2023-03-15T06:52:04;16.70;;;8.80;;
20283;SDS011;10301;50.832;4.080;2023-03-15T06:54:30;18.53;;;8.47;;
20283;SDS011;10301;50.832;4.080;2023-03-15T06:56:56;21.13;;;8.73;;
20283;SDS011;10301;50.832;4.080;2023-03-15T06:59:22;15.40;;;8.00;;
20283;SDS011;10301;50.832;4.080;2023-03-15T07:01:48;15.10;;;8.27;;
20283;SDS011;10301;50.832;4.080;2023-03-15T07:04:14;21.37;;;8.40;;
20283;SDS011;10301;50.832;4.080;2023-03-15T07:06:40;16.47;;;8.80;;
20283;SDS011;10301;50.832;4.080;2023-03-15T07:09:06;16.23;;;8.87;;
20283;SDS011;10301;50.832;4.080;2023-03-15T07:11:32;21.67;;;12.23;;
20283;SDS011;10301;50.832;4.080;2023-03-15T07:13:58;22.30;;;12.70;;
20283;SDS011;10301;50.832;4.080;2023-03-15T07:16:24;19.83;;;10.67;;
20283;SDS011;10301;50.832;4.080;2023-03-15T07:18:50;18.90;;;9.50;;
20283;SDS011;10301;50.832;4.080;2023-03-15T07:21:19;17.83;;;10.60;;
20283;SDS011;10301;50.832;4.080;2023-03-15T07:23:45;18.53;;;9.27;;
20283;SDS011;10301;50.832;4.080;2023-03-15T07:26:10;18.23;;;8.47;;
20283;SDS011;10301;50.832;4.080;2023-03-15T07:28:36;15.03;;;8.53;;
20283;SDS011;10301;50.832;4.080;2023-03-15T07:31:03;17.97;;;10.17;;
20283;SDS011;10301;50.832;4.080;2023-03-15T07:33:30;20.00;;;9.50;;
20283;SDS011;10301;50.832;4.080;2023-03-15T07:35:57;18.03;;;8.63;;
20283;SDS011;10301;50.832;4.080;2023-03-15T07:38:24;20.27;;;10.20;;
20283;SDS011;10301;50.832;4.080;2023-03-15T07:40:53;20.10;;;9.90;;
20283;SDS011;10301;50.832;4.080;2023-03-15T07:43:19;19.40;;;9.00;;
20283;SDS011;10301;50.832;4.080;2023-03-15T07:45:45;13.60;;;8.27;;
20283;SDS011;10301;50.832;4.080;2023-03-15T07:48:11;15.10;;;7.90;;
20283;SDS011;10301;50.832;4.080;2023-03-15T07:50:37;14.90;;;8.07;;
20283;SDS011;10301;50.832;4.080;2023-03-15T07:53:03;16.43;;;8.23;;
20283;SDS011;10301;50.832;4.080;2023-03-15T07:55:33;16.17;;;8.17;;
20283;SDS011;10301;50.832;4.080;2023-03-15T07:57:59;15.00;;;8.60;;
20283;SDS011;10301;50.832;4.080;2023-03-15T08:00:25;18.80;;;8.67;;
20283;SDS011;10301;50.832;4.080;2023-03-15T08:02:51;14.10;;;8.40;;
20283;SDS011;10301;50.832;4.080;2023-03-15T08:05:17;18.73;;;8.57;;
20283;SDS011;10301;50.832;4.080;2023-03-15T08:07:44;14.07;;;8.27;;
20283;SDS011;10301;50.832;4.080;2023-03-15T08:10:10;16.13;;;7.63;;
20283;SDS011;10301;50.832;4.080;2023-03-15T08:12:37;18.73;;;8.30;;
20283;SDS011;10301;50.832;4.080;2023-03-15T08:15:04;12.60;;;7.63;;
20283;SDS011;10301;50.832;4.080;2023-03-15T08:17:30;14.13;;;7.23;;
20283;SDS011;10301;50.832;4.080;2023-03-15T08:19:56;14.73;;;7.53;;
20283;SDS011;10301;50.832;4.080;2023-03-15T08:22:22;13.43;;;7.20;;
20283;SDS011;10301;50.832;4.080;2023-03-15T08:24:48;13.80;;;7.70;;
20283;SDS011;10301;50.832;4.080;2023-03-15T08:27:17;13.43;;;6.90;;
20283;SDS011;10301;50.832;4.080;2023-03-15T08:29:43;17.07;;;7.07;;
20283;SDS011;10301;50.832;4.080;2023-03-15T08:32:08;14.50;;;7.87;;
20283;SDS011;10301;50.832;4.080;2023-03-15T08:34:34;14.40;;;7.33;;
20283;SDS011;10301;50.832;4.080;2023-03-15T08:37:00;13.33;;;7.20;;
20283;SDS011;10301;50.832;4.080;2023-03-15T08:39:26;14.47;;;6.53;;
20283;SDS011;10301;50.832;4.080;2023-03-15T08:41:51;12.50;;;6.50;;
20283;SDS011;10301;50.832;4.080;2023-03-15T08:44:17;15.40;;;7.40;;
20283;SDS011;10301;50.832;4.080;2023-03-15T08:46:42;12.40;;;7.53;;
20283;SDS011;10301;50.832;4.080;2023-03-15T08:49:08;13.27;;;7.60;;
20283;SDS011;10301;50.832;4.080;2023-03-15T08:51:34;13.93;;;7.40;;
20283;SDS011;10301;50.832;4.080;2023-03-15T08:53:59;13.17;;;7.50;;
20283;SDS011;10301;50.832;4.080;2023-03-15T08:56:28;13.30;;;7.20;;
20283;SDS011;10301;50.832;4.080;2023-03-15T08:58:54;14.60;;;7.57;;
20283;SDS011;10301;50.832;4.080;2023-03-15T09:01:20;12.03;;;6.90;;
20283;SDS011;10301;50.832;4.080;2023-03-15T09:03:45;14.17;;;6.43;;
20283;SDS011;10301;50.832;4.080;2023-03-15T09:06:11;13.07;;;7.53;;
20283;SDS011;10301;50.832;4.080;2023-03-15T09:08:37;10.73;;;5.63;;
20283;SDS011;10301;50.832;4.080;2023-03-15T09:11:03;11.77;;;4.83;;
20283;SDS011;10301;50.832;4.080;2023-03-15T09:13:29;10.03;;;5.30;;
20283;SDS011;10301;50.832;4.080;2023-03-15T09:15:55;14.07;;;5.90;;
20283;SDS011;10301;50.832;4.080;2023-03-15T09:18:21;10.33;;;6.10;;
20283;SDS011;10301;50.832;4.080;2023-03-15T09:20:47;11.77;;;5.80;;
20283;SDS011;10301;50.832;4.080;2023-03-15T09:23:13;10.40;;;6.30;;
20283;SDS011;10301;50.832;4.080;2023-03-15T09:25:39;9.77;;;5.77;;
20283;SDS011;10301;50.832;4.080;2023-03-15T09:28:05;12.33;;;4.80;;
20283;SDS011;10301;50.832;4.080;2023-03-15T09:30:34;8.43;;;3.80;;
20283;SDS011;10301;50.832;4.080;2023-03-15T09:33:00;5.43;;;2.60;;
20283;SDS011;10301;50.832;4.080;2023-03-15T09:35:26;7.57;;;2.53;;
20283;SDS011;10301;50.832;4.080;2023-03-15T09:37:52;6.67;;;3.30;;
20283;SDS011;10301;50.832;4.080;2023-03-15T09:40:19;9.20;;;3.50;;
20283;SDS011;10301;50.832;4.080;2023-03-15T09:56:27;8.40;;;4.03;;
20283;SDS011;10301;50.832;4.080;2023-03-15T09:58:59;8.97;;;3.57;;
20283;SDS011;10301;50.832;4.080;2023-03-15T10:01:36;6.57;;;3.67;;
20283;SDS011;10301;50.832;4.080;2023-03-15T10:04:07;9.47;;;3.43;;
20283;SDS011;10301;50.832;4.080;2023-03-15T10:06:40;8.93;;;3.57;;
20283;SDS011;10301;50.832;4.080;2023-03-15T10:09:11;8.40;;;3.50;;
20283;SDS011;10301;50.832;4.080;2023-03-15T10:12:01;11.57;;;3.07;;
20283;SDS011;10301;50.832;4.080;2023-03-15T10:17:09;7.60;;;2.97;;
20283;SDS011;10301;50.832;4.080;2023-03-15T10:19:46;5.67;;;2.67;;
20283;SDS011;10301;50.832;4.080;2023-03-15T10:24:49;6.90;;;2.83;;
20283;SDS011;10301;50.832;4.080;2023-03-15T10:27:24;10.17;;;3.10;;
20283;SDS011;10301;50.832;4.080;2023-03-15T10:30:00;11.87;;;3.33;;
20283;SDS011;10301;50.832;4.080;2023-03-15T10:32:29;6.63;;;2.70;;
20283;SDS011;10301;50.832;4.080;2023-03-15T10:35:07;9.73;;;2.40;;
20283;SDS011;10301;50.832;4.080;2023-03-15T10:37:39;6.10;;;2.90;;
20283;SDS011;10301;50.832;4.080;2023-03-15T10:40:06;7.03;;;2.70;;
20283;SDS011;10301;50.832;4.080;2023-03-15T10:42:39;6.13;;;2.77;;
20283;SDS011;10301;50.832;4.080;2023-03-15T10:45:20;11.37;;;3.30;;
20283;SDS011;10301;50.832;4.080;2023-03-15T10:47:47;5.37;;;2.47;;
20283;SDS011;10301;50.832;4.080;2023-03-15T10:50:18;9.17;;;3.00;;
20283;SDS011;10301;50.832;4.080;2023-03-15T10:52:53;9.00;;;2.60;;
20283;SDS011;10301;50.832;4.080;2023-03-15T10:55:42;6.80;;;2.60;;
20283;SDS011;10301;50.832;4.080;2023-03-15T10:58:18;7.40;;;2.40;;
20283;SDS011;10301;50.832;4.080;2023-03-15T11:00:52;10.23;;;2.50;;
20283;SDS011;10301;50.832;4.080;2023-03-15T11:03:26;6.33;;;1.90;;
20283;SDS011;10301;50.832;4.080;2023-03-15T11:05:53;9.27;;;2.20;;
20283;SDS011;10301;50.832;4.080;2023-03-15T11:08:22;7.43;;;2.17;;
20283;SDS011;10301;50.832;4.080;2023-03-15T11:10:59;5.63;;;2.27;;
20283;SDS011;10301;50.832;4.080;2023-03-15T11:13:29;6.73;;;2.20;;
20283;SDS011;10301;50.832;4.080;2023-03-15T11:18:44;3.97;;;1.00;;
20283;SDS011;10301;50.832;4.080;2023-03-15T11:21:24;5.43;;;1.77;;
20283;SDS011;10301;50.832;4.080;2023-03-15T11:23:54;7.63;;;1.80;;
20283;SDS011;10301;50.832;4.080;2023-03-15T11:26:22;5.03;;;1.60;;
20283;SDS011;10301;50.832;4.080;2023-03-15T11:28:49;4.30;;;1.60;;
20283;SDS011;10301;50.832;4.080;2023-03-15T11:31:21;9.10;;;2.10;;
20283;SDS011;10301;50.832;4.080;2023-03-15T11:33:51;4.20;;;1.87;;
20283;SDS011;10301;50.832;4.080;2023-03-15T11:36:31;5.37;;;2.40;;
20283;SDS011;10301;50.832;4.080;2023-03-15T11:39:01;7.87;;;2.50;;
20283;SDS011;10301;50.832;4.080;2023-03-15T11:41:31;5.97;;;2.37;;
20283;SDS011;10301;50.832;4.080;2023-03-15T11:46:49;4.77;;;1.93;;
20283;SDS011;10301;50.832;4.080;2023-03-15T11:52:10;4.07;;;1.33;;
20283;SDS011;10301;50.832;4.080;2023-03-15T11:54:36;4.03;;;1.30;;
20283;SDS011;10301;50.832;4.080;2023-03-15T11:57:06;4.27;;;1.53;;
20283;SDS011;10301;50.832;4.080;2023-03-15T11:59:51;5.10;;;2.00;;
20283;SDS011;10301;50.832;4.080;2023-03-15T12:04:43;5.10;;;1.93;;
20283;SDS011;10301;50.832;4.080;2023-03-15T12:17:58;2.97;;;1.60;;
20283;SDS011;10301;50.832;4.080;2023-03-15T12:20:34;5.37;;;1.83;;
20283;SDS011;10301;50.832;4.080;2023-03-15T12:31:53;6.15;;;1.80;;
20283;SDS011;10301;50.832;4.080;2023-03-15T12:37:05;9.83;;;2.20;;
20283;SDS011;10301;50.832;4.080;2023-03-15T12:39:48;6.80;;;1.80;;
20283;SDS011;10301;50.832;4.080;2023-03-15T12:44:53;5.40;;;1.67;;
20283;SDS011;10301;50.832;4.080;2023-03-15T12:48:17;6.63;;;1.60;;
20283;SDS011;10301;50.832;4.080;2023-03-15T12:53:22;7.15;;;2.00;;
20283;SDS011;10301;50.832;4.080;2023-03-15T12:56:11;6.57;;;2.10;;
20283;SDS011;10301;50.832;4.080;2023-03-15T12:59:19;4.65;;;1.60;;
20283;SDS011;10301;50.832;4.080;2023-03-15T13:02:02;9.48;;;2.03;;
20283;SDS011;10301;50.832;4.080;2023-03-15T13:08:08;4.93;;;1.80;;
20283;SDS011;10301;50.832;4.080;2023-03-15T13:10:55;3.50;;;1.50;;
20283;SDS011;10301;50.832;4.080;2023-03-15T13:19:01;2.67;;;1.20;;
20283;SDS011;10301;50.832;4.080;2023-03-15T13:24:39;4.63;;;1.95;;
20283;SDS011;10301;50.832;4.080;2023-03-15T13:27:27;7.13;;;2.10;;
20283;SDS011;10301;50.832;4.080;2023-03-15T13:33:05;4.50;;;1.80;;
20283;SDS011;10301;50.832;4.080;2023-03-15T13:35:44;5.47;;;2.00;;
20283;SDS011;10301;50.832;4.080;2023-03-15T13:40:48;4.35;;;1.80;;
20283;SDS011;10301;50.832;4.080;2023-03-15T13:43:14;5.28;;;2.03;;
20283;SDS011;10301;50.832;4.080;2023-03-15T13:45:42;4.10;;;1.67;;
20283;SDS011;10301;50.832;4.080;2023-03-15T13:48:08;4.05;;;1.73;;
20283;SDS011;10301;50.832;4.080;2023-03-15T13:50:35;6.38;;;1.67;;
20283;SDS011;10301;50.832;4.080;2023-03-15T13:53:02;5.60;;;1.80;;
20283;SDS011;10301;50.832;4.080;2023-03-15T13:55:31;6.22;;;2.35;;
20283;SDS011;10301;50.832;4.080;2023-03-15T13:58:03;4.30;;;1.98;;
20283;SDS011;10301;50.832;4.080;2023-03-15T14:00:30;6.15;;;1.73;;
20283;SDS011;10301;50.832;4.080;2023-03-15T14:03:05;6.35;;;1.83;;
20283;SDS011;10301;50.832;4.080;2023-03-15T14:05:44;5.43;;;1.63;;
20283;SDS011;10301;50.832;4.080;2023-03-15T14:08:23;4.00;;;1.70;;
20283;SDS011;10301;50.832;4.080;2023-03-15T14:11:00;4.55;;;1.70;;
20283;SDS011;10301;50.832;4.080;2023-03-15T14:13:28;4.50;;;2.00;;
20283;SDS011;10301;50.832;4.080;2023-03-15T14:15:57;5.70;;;1.98;;
20283;SDS011;10301;50.832;4.080;2023-03-15T14:18:28;4.57;;;1.52;;
20283;SDS011;10301;50.832;4.080;2023-03-15T14:23:41;4.57;;;1.50;;
20283;SDS011;10301;50.832;4.080;2023-03-15T14:26:14;5.63;;;1.90;;
20283;SDS011;10301;50.832;4.080;2023-03-15T14:28:41;7.28;;;1.55;;
20283;SDS011;10301;50.832;4.080;2023-03-15T14:31:23;4.95;;;2.10;;
20283;SDS011;10301;50.832;4.080;2023-03-15T14:34:04;4.30;;;1.55;;
20283;SDS011;10301;50.832;4.080;2023-03-15T14:36:39;5.13;;;1.45;;
20283;SDS011;10301;50.832;4.080;2023-03-15T14:39:17;4.72;;;1.50;;
20283;SDS011;10301;50.832;4.080;2023-03-15T14:42:01;5.88;;;1.52;;
20283;SDS011;10301;50.832;4.080;2023-03-15T14:44:26;3.55;;;1.80;;
20283;SDS011;10301;50.832;4.080;2023-03-15T14:46:52;2.63;;;1.20;;
20283;SDS011;10301;50.832;4.080;2023-03-15T14:49:21;5.80;;;1.50;;
20283;SDS011;10301;50.832;4.080;2023-03-15T14:51:51;4.40;;;1.33;;
20283;SDS011;10301;50.832;4.080;2023-03-15T14:54:19;4.80;;;1.55;;
20283;SDS011;10301;50.832;4.080;2023-03-15T14:56:45;5.85;;;1.70;;
20283;SDS011;10301;50.832;4.080;2023-03-15T14:59:11;5.47;;;1.67;;
20283;SDS011;10301;50.832;4.080;2023-03-15T15:01:37;5.50;;;1.98;;
20283;SDS011;10301;50.832;4.080;2023-03-15T15:04:04;6.57;;;1.58;;
20283;SDS011;10301;50.832;4.080;2023-03-15T15:06:30;5.60;;;1.58;;
20283;SDS011;10301;50.832;4.080;2023-03-15T15:08:57;2.60;;;1.38;;
20283;SDS011;10301;50.832;4.080;2023-03-15T15:11:27;8.80;;;2.85;;
20283;SDS011;10301;50.832;4.080;2023-03-15T15:13:53;8.02;;;1.83;;
20283;SDS011;10301;50.832;4.080;2023-03-15T15:16:19;6.30;;;1.55;;
20283;SDS011;10301;50.832;4.080;2023-03-15T15:18:44;7.03;;;2.00;;
20283;SDS011;10301;50.832;4.080;2023-03-15T15:21:16;5.45;;;1.98;;
20283;SDS011;10301;50.832;4.080;2023-03-15T15:23:52;4.95;;;2.20;;
20283;SDS011;10301;50.832;4.080;2023-03-15T15:26:19;8.88;;;2.40;;
20283;SDS011;10301;50.832;4.080;2023-03-15T15:28:47;7.32;;;1.75;;
20283;SDS011;10301;50.832;4.080;2023-03-15T15:31:15;5.13;;;1.85;;
20283;SDS011;10301;50.832;4.080;2023-03-15T15:33:42;4.30;;;1.70;;
20283;SDS011;10301;50.832;4.080;2023-03-15T15:36:10;4.15;;;1.52;;
20283;SDS011;10301;50.832;4.080;2023-03-15T15:38:50;6.82;;;1.88;;
20283;SDS011;10301;50.832;4.080;2023-03-15T15:41:18;6.35;;;2.00;;
20283;SDS011;10301;50.832;4.080;2023-03-15T15:43:47;5.60;;;1.75;;
20283;SDS011;10301;50.832;4.080;2023-03-15T15:46:13;4.63;;;1.90;;
20283;SDS011;10301;50.832;4.080;2023-03-15T15:48:38;6.70;;;1.80;;
20283;SDS011;10301;50.832;4.080;2023-03-15T15:51:48;5.95;;;2.13;;
20283;SDS011;10301;50.832;4.080;2023-03-15T15:53:56;9.23;;;2.78;;
20283;SDS011;10301;50.832;4.080;2023-03-15T15:56:28;8.10;;;2.70;;
20283;SDS011;10301;50.832;4.080;2023-03-15T15:59:03;7.63;;;2.63;;
20283;SDS011;10301;50.832;4.080;2023-03-15T16:01:33;5.63;;;1.92;;
20283;SDS011;10301;50.832;4.080;2023-03-15T16:03:59;5.68;;;2.45;;
20283;SDS011;10301;50.832;4.080;2023-03-15T16:06:26;6.13;;;1.98;;
20283;SDS011;10301;50.832;4.080;2023-03-15T16:08:52;6.40;;;2.00;;
20283;SDS011;10301;50.832;4.080;2023-03-15T16:11:19;6.80;;;2.08;;
20283;SDS011;10301;50.832;4.080;2023-03-15T16:13:45;4.78;;;2.10;;
20283;SDS011;10301;50.832;4.080;2023-03-15T16:16:13;4.43;;;1.75;;